»·PEaware :: AAL450 KPHX-KSLC

AAL450 :: KPHX-KSLC

FLIGHT INFORMATION

Flight Status: Arrived
Operator:
American Airlines
More flights by this operator :: More flights under this callsign
Pilot: Alex Silvestri (7186)
Aircraft: AIRBUS A319
(A319)
More flights by this aircraft type
Origin: KPHX Phoenix Sky Harbor Intl
United States
Destination: KSLC Salt Lake City Intl
United States
More flights between these airports :: More routes between these airports
Route: SNOBL5 GCN BCE DELTA4
File this flight plan on PilotEdge
Remarks: PBN / A1B1C1D1O1S1 DOF / 170613 REG / N8001N OPR / AAL RMK / TCAS SIMBRIEF
Altitude:
(Current/Filed)
32,000ft
Speed:
(Current/Filed)
469kts
Departed: 12-Jun-17 08:02 PM
Arrived: 12-Jun-17 09:07 PM
Distance/Time
Traveled:
441nm/1:05
Distance/Time
To Go:
Arrived

Flight Plot

Page will automatically refresh every two minutes.


Map Options




Map Legend


Flown Route
Filed Route
Departure Airport
Arrival Airport
Navaid (VOR, NDB)
Fix

Horizontal Profiles

Position Reports

Time Latitude Longitude Heading Altitude Ground
Speed
12-Jun-17 19:27 33.436818 -111.997338 90 1149ft 0kts
12-Jun-17 19:28 33.436818 -111.997338 90 1149ft 0kts
12-Jun-17 19:29 33.436818 -111.997338 90 1149ft 0kts
12-Jun-17 19:30 33.436818 -111.997338 90 1149ft 0kts
12-Jun-17 19:31 33.436818 -111.997338 90 1149ft 0kts
12-Jun-17 19:32 33.436818 -111.997338 90 1149ft 0kts
12-Jun-17 19:33 33.436818 -111.997338 90 1149ft 0kts
12-Jun-17 19:34 33.436818 -111.997338 90 1149ft 0kts
12-Jun-17 19:35 33.436818 -111.997338 90 1149ft 0kts
12-Jun-17 19:36 33.436818 -111.997338 90 1149ft 0kts
12-Jun-17 19:37 33.436818 -111.997338 90 1149ft 0kts
12-Jun-17 19:38 33.436818 -111.997338 90 1149ft 0kts
12-Jun-17 19:39 33.436818 -111.997338 90 1149ft 0kts
12-Jun-17 19:40 33.436818 -111.997338 90 1149ft 0kts
12-Jun-17 19:41 33.436818 -111.997338 90 1149ft 0kts
12-Jun-17 19:42 33.436818 -111.997338 90 1149ft 0kts
12-Jun-17 19:43 33.436818 -111.997338 90 1149ft 0kts
12-Jun-17 19:44 33.436818 -111.997338 90 1149ft 0kts
12-Jun-17 19:46 33.436818 -111.997338 90 1149ft 0kts
12-Jun-17 19:47 33.436818 -111.997338 90 1149ft 0kts
12-Jun-17 19:48 33.436818 -111.997338 90 1149ft 0kts
12-Jun-17 19:49 33.436818 -111.997338 90 1149ft 0kts
12-Jun-17 19:50 33.436818 -111.997338 90 1149ft 0kts
12-Jun-17 19:51 33.436818 -111.997338 90 1149ft 0kts
12-Jun-17 19:52 33.436818 -111.997338 90 1149ft 0kts
12-Jun-17 19:52 33.436818 -111.997338 90 1149ft 0kts
12-Jun-17 19:53 33.436818 -111.997338 90 1149ft 0kts
12-Jun-17 19:54 33.436796 -111.997624 74 1149ft 2kts
12-Jun-17 19:55 33.436626 -111.997980 45 1149ft 0kts
12-Jun-17 19:57 33.436627 -111.997978 45 1149ft 0kts
12-Jun-17 19:57 33.437312 -111.997789 1 1149ft 4kts
12-Jun-17 19:58 33.438383 -111.997768 358 1149ft 0kts
12-Jun-17 19:59 33.438385 -111.997768 358 1149ft 0kts
12-Jun-17 20:00 33.439006 -111.994505 87 1149ft 24kts
12-Jun-17 20:01 33.436382 -111.992445 180 1149ft 23kts
12-Jun-17 20:02 33.431916 -111.992862 222 1149ft 0kts
12-Jun-17 20:03 33.431047 -111.995759 269 1149ft 36kts
12-Jun-17 20:04 33.426552 -112.035199 250 2437ft 139kts
12-Jun-17 20:05 33.444932 -112.088468 315 3749ft 243kts
12-Jun-17 20:06 33.501368 -112.145490 316 6487ft 279kts
12-Jun-17 20:07 33.576097 -112.171654 357 10066ft 303kts
12-Jun-17 20:08 33.655125 -112.121436 45 12364ft 362kts
12-Jun-17 20:09 33.726746 -112.030111 42 15051ft 387kts
12-Jun-17 20:10 33.826360 -111.985125 3 17512ft 392kts
12-Jun-17 20:11 33.936068 -111.964700 2 19936ft 404kts
12-Jun-17 20:12 34.048957 -111.943481 2 21328ft 416kts
12-Jun-17 20:13 34.164444 -111.941041 346 23177ft 418kts
12-Jun-17 20:14 34.281358 -111.955396 346 25029ft 426kts
12-Jun-17 20:15 34.400946 -111.969143 345 26505ft 438kts
12-Jun-17 20:16 34.522960 -111.982802 345 27863ft 447kts
12-Jun-17 20:17 34.648343 -111.996745 345 29025ft 456kts
12-Jun-17 20:18 34.776273 -112.010906 344 30047ft 464kts
12-Jun-17 20:19 34.904685 -112.025428 343 30943ft 473kts
12-Jun-17 20:20 35.037740 -112.040476 343 31905ft 478kts
12-Jun-17 20:21 35.170638 -112.055496 343 32134ft 477kts
12-Jun-17 20:22 35.302979 -112.070566 343 32146ft 480kts
12-Jun-17 20:23 35.435978 -112.084883 343 32146ft 481kts
12-Jun-17 20:24 35.569204 -112.098635 342 32140ft 480kts
12-Jun-17 20:25 35.702151 -112.114669 342 32133ft 481kts
12-Jun-17 20:26 35.835750 -112.130775 342 32128ft 481kts
12-Jun-17 20:27 35.964253 -112.146228 342 32128ft 482kts
12-Jun-17 20:28 36.103369 -112.158946 344 32126ft 484kts
12-Jun-17 20:29 36.237505 -112.170877 343 32116ft 484kts
12-Jun-17 20:30 36.371591 -112.182891 343 32099ft 483kts
12-Jun-17 20:31 36.505199 -112.194923 343 32079ft 483kts
12-Jun-17 20:32 36.639557 -112.207059 343 32054ft 484kts
12-Jun-17 20:33 36.773637 -112.219222 343 32042ft 484kts
12-Jun-17 20:34 36.908277 -112.231518 343 32036ft 485kts
12-Jun-17 20:35 37.043298 -112.243875 343 32052ft 485kts
12-Jun-17 20:36 37.177459 -112.256178 343 32065ft 486kts
12-Jun-17 20:37 37.313508 -112.268722 343 32083ft 487kts
12-Jun-17 20:38 37.448274 -112.281163 343 32104ft 488kts
12-Jun-17 20:39 37.584414 -112.293828 343 32123ft 490kts
12-Jun-17 20:40 37.719302 -112.306908 342 32132ft 489kts
12-Jun-17 20:41 37.855464 -112.319679 354 32127ft 494kts
12-Jun-17 20:42 37.994282 -112.298407 356 32107ft 512kts
12-Jun-17 20:43 38.135922 -112.274126 357 32086ft 513kts
12-Jun-17 20:44 38.277922 -112.248230 357 32067ft 512kts
12-Jun-17 20:45 38.418197 -112.221744 358 32053ft 509kts
12-Jun-17 20:46 38.558667 -112.194895 358 32031ft 509kts
12-Jun-17 20:47 38.698192 -112.167906 359 32019ft 506kts
12-Jun-17 20:48 38.836026 -112.145101 358 31990ft 489kts
12-Jun-17 20:49 38.971027 -112.126630 358 31974ft 487kts
12-Jun-17 20:50 39.103273 -112.108257 359 31120ft 468kts
12-Jun-17 20:51 39.230650 -112.090560 359 30120ft 454kts
12-Jun-17 20:52 39.352880 -112.073278 0 27813ft 428kts
12-Jun-17 20:53 39.468080 -112.056822 0 25332ft 406kts
12-Jun-17 20:54 39.577827 -112.041116 0 22858ft 385kts
12-Jun-17 20:55 39.681936 -112.026262 0 20532ft 369kts
12-Jun-17 20:56 39.781608 -112.012008 0 18354ft 353kts
12-Jun-17 20:57 39.877781 -111.998255 1 16414ft 344kts
12-Jun-17 20:58 39.973488 -111.984691 1 14767ft 354kts
12-Jun-17 20:59 40.070642 -111.971236 2 13499ft 348kts
12-Jun-17 21:00 40.166521 -111.957976 2 12248ft 344kts
12-Jun-17 21:01 40.261054 -111.944388 6 11112ft 336kts
12-Jun-17 21:02 40.353861 -111.931927 1 11040ft 335kts
12-Jun-17 21:03 40.443928 -111.935045 350 11038ft 327kts
12-Jun-17 21:04 40.531819 -111.945043 350 10064ft 303kts
12-Jun-17 21:05 40.608397 -111.953844 351 8091ft 255kts
12-Jun-17 21:06 40.674722 -111.961510 352 6221ft 215kts
12-Jun-17 21:07 40.726500 -111.967412 348 5183ft 161kts
12-Jun-17 21:08 40.769251 -111.972440 348 4379ft 160kts
12-Jun-17 21:09 40.792024 -111.975387 303 4241ft 9kts
12-Jun-17 21:10 40.790789 -111.977083 175 4241ft 16kts
12-Jun-17 21:11 40.784334 -111.976372 177 4241ft 10kts
12-Jun-17 21:12 40.784957 -111.978829 359 4241ft 5kts
12-Jun-17 21:13 40.784985 -111.978829 359 4241ft 0kts
12-Jun-17 21:14 40.784985 -111.978829 359 4241ft 0kts
12-Jun-17 21:15 40.784985 -111.978829 359 4241ft 0kts

Navigation Log

Ident Type
1. KPHX Airport
2. SPRKY Fix
3. GOALY Fix
4. QUAKY Fix
5. SNOBL Fix
6. CARTL Fix
7. LOFTS Fix
8. RIMMM Fix
9. GCN Navaid
10. BCE Navaid
11. SLINA Fix
12. DTA Navaid
13. JAMMN Fix
14. DRAPR Fix
15. SPIEK Fix
16. HEIRY Fix
17. PITTT Fix
18. MAGNE Fix
19. QUIPA Fix
20. RROYY Fix
21. KSLC Airport